Grandin, Florida
Current Conditions -  °F | °C
As of 5:53 PM on Thursday 23 Oct 2014 (Local Time) from KGNV Reporting Station
Clear Clear  
Wind Chill: 74°   Ceiling: Unl
Heat Index: 74°   Visibility: 10mi
Dew Point: 51°   Wind: 6mph
Humidity: 45%   Direction: 70°ENE
Pressure: 29.97"   Gusts: NA
Location:  29.73°N, 81.92°W
Report Text: KGNV 232153Z 07005KT 10SM CLR 23/11 A2997 RMK AO2 SLP148 T02330106
Loading
Personal Weather Stations






























Interactive Weather Map New forecast layout! Learn more

10-Day Weather Forecast

Advertisements
Track Severe Weather on mobile